createdAt,value
2017-03-03T00:00:34.088Z,95.03
2017-03-03T00:01:44.403Z,95.03
2017-03-03T00:02:53.681Z,93.94
2017-03-03T00:04:03.177Z,93.89
2017-03-03T00:05:12.165Z,94.08
2017-03-03T00:06:22.639Z,93.8
2017-03-03T00:07:33.092Z,93.89
2017-03-03T00:08:43.124Z,94.37
2017-03-03T00:09:53.071Z,95.03
2017-03-03T00:11:02.778Z,94.65
2017-03-03T00:12:12.243Z,95.03
2017-03-03T00:13:21.219Z,94.08
2017-03-03T00:14:30.957Z,93.7
2017-03-03T00:15:39.977Z,93.99
2017-03-03T00:16:49.927Z,94.27
2017-03-03T00:17:59.006Z,94.27
2017-03-03T00:19:08.724Z,93.89
2017-03-03T00:20:17.993Z,94.84
2017-03-03T00:21:27.559Z,94.46
2017-03-03T00:22:36.538Z,94.46
2017-03-03T00:23:46.154Z,94.65
2017-03-03T00:24:55.344Z,94.74
2017-03-03T00:26:05.382Z,95.31
2017-03-03T00:27:14.556Z,94.93
2017-03-03T00:28:25.595Z,94.65
2017-03-03T00:29:34.582Z,94.84
2017-03-03T00:30:45.344Z,94.93
2017-03-03T00:31:55.288Z,94.84
2017-03-03T00:33:04.280Z,94.18
2017-03-03T00:34:13.626Z,94.08
2017-03-03T00:35:22.605Z,94.65
2017-03-03T00:36:31.608Z,94.46
2017-03-03T00:37:41.686Z,93.7
2017-03-03T00:38:52.395Z,94.56
2017-03-03T00:40:02.143Z,93.99
2017-03-03T00:41:12.083Z,93.04
2017-03-03T00:42:21.257Z,93.41
2017-03-03T00:43:31.218Z,94.08
2017-03-03T00:44:40.201Z,93.32
2017-03-03T00:45:49.310Z,93.51
2017-03-03T00:46:58.304Z,93.41
2017-03-03T00:48:07.277Z,93.8
2017-03-03T00:49:16.616Z,94.37
2017-03-03T00:50:25.827Z,94.65
2017-03-03T00:51:34.809Z,93.99
2017-03-03T00:52:44.344Z,94.46
2017-03-03T00:53:53.329Z,93.13
2017-03-03T00:55:03.599Z,93.6
2017-03-03T00:56:14.322Z,93.51
2017-03-03T00:57:24.501Z,93.13
2017-03-03T00:58:33.506Z,93.32
2017-03-03T00:59:43.221Z,93.99
2017-03-03T01:00:52.454Z,93.99
2017-03-03T01:02:02.248Z,94.74
2017-03-03T01:03:11.225Z,94.65
2017-03-03T01:04:20.486Z,94.93
2017-03-03T01:05:29.466Z,95.51
2017-03-03T01:06:39.698Z,94.93
2017-03-03T01:07:48.774Z,94.56
2017-03-03T01:08:58.123Z,94.84
2017-03-03T01:10:07.096Z,94.93
2017-03-03T01:11:16.973Z,95.12
2017-03-03T01:12:26.207Z,93.41
2017-03-03T01:13:36.030Z,92.66
2017-03-03T01:14:45.040Z,93.51
2017-03-03T01:15:54.462Z,93.41
2017-03-03T01:17:03.443Z,93.32
2017-03-03T01:18:13.180Z,92.09
2017-03-03T01:19:22.153Z,92.18
2017-03-03T01:20:31.549Z,92.56
2017-03-03T01:21:40.525Z,92.28
2017-03-03T01:22:49.849Z,92.85
2017-03-03T01:23:59.622Z,92.56
2017-03-03T01:25:09.150Z,92.28
2017-03-03T01:26:18.512Z,92.37
2017-03-03T01:27:27.991Z,93.23
2017-03-03T01:28:36.998Z,92.28
2017-03-03T01:29:46.901Z,92.18
2017-03-03T01:30:55.877Z,92.09
2017-03-03T01:32:05.489Z,92.85
2017-03-03T01:33:14.542Z,92.85
2017-03-03T01:34:23.559Z,92.37
2017-03-03T01:35:33.152Z,93.13
2017-03-03T01:36:43.461Z,92.94
2017-03-03T01:37:52.545Z,93.04
2017-03-03T01:39:02.087Z,92.94
2017-03-03T01:40:11.128Z,93.13
2017-03-03T01:41:21.044Z,93.23
2017-03-03T01:42:30.017Z,92.85
2017-03-03T01:43:39.614Z,93.41
2017-03-03T01:44:48.708Z,93.89
2017-03-03T01:45:58.520Z,93.04
2017-03-03T01:47:08.141Z,92.75
2017-03-03T01:48:17.987Z,93.23
2017-03-03T01:49:26.997Z,93.13
2017-03-03T01:50:36.810Z,93.41
2017-03-03T01:51:45.791Z,92.94
2017-03-03T01:52:55.759Z,93.23
2017-03-03T01:54:04.756Z,93.6
2017-03-03T01:55:14.592Z,92.94
2017-03-03T01:56:24.003Z,92.75
2017-03-03T01:57:33.307Z,92.18
2017-03-03T01:58:42.708Z,91.89
2017-03-03T01:59:51.944Z,91.14
2017-03-03T02:01:01.081Z,91.99
2017-03-03T02:02:11.159Z,92.28
2017-03-03T02:03:20.153Z,92.18
2017-03-03T02:04:31.552Z,92.75
2017-03-03T02:05:40.567Z,91.71
2017-03-03T02:06:50.729Z,92.47
2017-03-03T02:07:59.713Z,92.85
2017-03-03T02:09:09.619Z,92.85
2017-03-03T02:10:18.865Z,93.13
2017-03-03T02:11:28.333Z,93.23
2017-03-03T02:12:37.320Z,93.41
2017-03-03T02:13:46.309Z,92.18
2017-03-03T02:14:55.796Z,92.37
2017-03-03T02:16:05.023Z,92.18
2017-03-03T02:17:14.019Z,92.75
2017-03-03T02:18:23.091Z,92.18
2017-03-03T02:19:32.080Z,92.18
2017-03-03T02:20:41.076Z,92.18
2017-03-03T02:21:50.301Z,92.28
2017-03-03T02:22:59.281Z,93.51
2017-03-03T02:24:08.674Z,93.04
2017-03-03T02:25:17.752Z,93.04
2017-03-03T02:26:26.729Z,93.51
2017-03-03T02:27:35.963Z,93.04
2017-03-03T02:28:44.955Z,93.51
2017-03-03T02:29:53.947Z,93.23
2017-03-03T02:31:02.956Z,93.04
2017-03-03T02:32:11.972Z,93.04
2017-03-03T02:33:21.731Z,93.04
2017-03-03T02:34:30.756Z,93.04
2017-03-03T02:35:39.743Z,93.41
2017-03-03T02:36:48.724Z,93.6
2017-03-03T02:37:57.704Z,93.41
2017-03-03T02:39:07.037Z,94.18
2017-03-03T02:40:16.022Z,93.41
2017-03-03T02:41:25.010Z,93.04
2017-03-03T02:42:33.995Z,92.94
2017-03-03T02:43:43.001Z,93.51
2017-03-03T02:44:52.245Z,93.51
2017-03-03T02:46:01.277Z,93.6
2017-03-03T02:47:10.261Z,94.18
2017-03-03T02:48:19.259Z,93.99
2017-03-03T02:49:28.346Z,93.41
2017-03-03T02:50:37.589Z,93.32
2017-03-03T02:51:46.568Z,93.13
2017-03-03T02:52:55.566Z,92.56
2017-03-03T02:54:04.630Z,93.08
2017-03-03T02:55:13.633Z,93.37
2017-03-03T02:56:22.865Z,93.41
2017-03-03T02:57:32.248Z,93.23
2017-03-03T02:58:41.220Z,92.9
2017-03-03T02:59:50.204Z,92.23
2017-03-03T03:00:59.194Z,91.85
2017-03-03T03:02:08.503Z,92.33
2017-03-03T03:03:17.489Z,92.14
2017-03-03T03:04:26.471Z,91.85
2017-03-03T03:05:35.463Z,92.23
2017-03-03T03:06:44.444Z,92.23
2017-03-03T03:07:53.699Z,92.33
2017-03-03T03:09:02.670Z,92.99
2017-03-03T03:10:11.671Z,92.99
2017-03-03T03:11:20.672Z,92.9
2017-03-03T03:12:29.657Z,93.46
2017-03-03T03:13:38.962Z,92.99
2017-03-03T03:14:47.941Z,93.08
2017-03-03T03:15:56.925Z,93.46
2017-03-03T03:17:05.924Z,93.37
2017-03-03T03:18:14.917Z,93.37
2017-03-03T03:19:24.144Z,93.37
2017-03-03T03:20:33.140Z,93.84
2017-03-03T03:21:42.625Z,93.27
2017-03-03T03:22:51.615Z,93.32
2017-03-03T03:24:00.613Z,92.94
2017-03-03T03:25:09.848Z,93.18
2017-03-03T03:26:18.843Z,93.32
2017-03-03T03:27:27.842Z,92.8
2017-03-03T03:28:36.841Z,92.9
2017-03-03T03:29:45.817Z,93.27
2017-03-03T03:30:55.042Z,93.08
2017-03-03T03:32:04.134Z,92.8
2017-03-03T03:33:13.126Z,92.9
2017-03-03T03:34:22.118Z,93.46
2017-03-03T03:35:31.091Z,93.46
2017-03-03T03:36:40.387Z,93.94
2017-03-03T03:37:49.374Z,94.23
2017-03-03T03:38:58.384Z,93.94
2017-03-03T03:40:07.486Z,93.75
2017-03-03T03:41:16.476Z,93.84
2017-03-03T03:42:25.712Z,93.56
2017-03-03T03:43:34.712Z,93.18
2017-03-03T03:44:43.783Z,93.94
2017-03-03T03:45:52.778Z,93.94
2017-03-03T03:47:01.757Z,93.65
2017-03-03T03:48:10.987Z,93.75
2017-03-03T03:49:19.988Z,93.08
2017-03-03T03:50:28.963Z,92.9
2017-03-03T03:51:37.968Z,92.9
2017-03-03T03:52:46.956Z,93.08
2017-03-03T03:53:56.243Z,93.08
2017-03-03T03:55:05.235Z,93.37
2017-03-03T03:56:14.722Z,92.99
2017-03-03T03:57:23.872Z,92.71
2017-03-03T03:58:32.859Z,92.71
2017-03-03T03:59:42.088Z,93.08
2017-03-03T04:00:51.167Z,93.18
2017-03-03T04:02:00.137Z,92.9
2017-03-03T04:03:09.122Z,93.27
2017-03-03T04:04:18.104Z,93.37
2017-03-03T04:05:27.416Z,93.75
2017-03-03T04:06:36.818Z,93.94
2017-03-03T04:07:45.793Z,92.99
2017-03-03T04:08:54.789Z,93.56
2017-03-03T04:10:04.283Z,93.37
2017-03-03T04:11:13.621Z,92.9
2017-03-03T04:12:22.603Z,93.18
2017-03-03T04:13:31.675Z,93.56
2017-03-03T04:14:40.647Z,94.13
2017-03-03T04:15:49.633Z,94.03
2017-03-03T04:16:58.873Z,93.18
2017-03-03T04:18:07.872Z,93.37
2017-03-03T04:19:16.869Z,93.18
2017-03-03T04:20:25.850Z,93.46
2017-03-03T04:21:34.821Z,92.99
2017-03-03T04:22:44.044Z,93.94
2017-03-03T04:23:53.113Z,93.75
2017-03-03T04:25:02.179Z,93.75
2017-03-03T04:26:11.155Z,94.03
2017-03-03T04:27:20.137Z,93.37
2017-03-03T04:28:29.515Z,93.27
2017-03-03T04:29:38.579Z,93.56
2017-03-03T04:30:47.647Z,93.08
2017-03-03T04:31:56.635Z,93.46
2017-03-03T04:33:06.192Z,93.18
2017-03-03T04:34:15.954Z,93.94
2017-03-03T04:35:24.928Z,93.84
2017-03-03T04:36:33.902Z,93.75
2017-03-03T04:37:42.907Z,94.32
2017-03-03T04:38:52.083Z,93.75
2017-03-03T04:40:01.724Z,93.56
2017-03-03T04:41:11.128Z,93.94
2017-03-03T04:42:20.113Z,93.84
2017-03-03T04:43:29.099Z,93.75
2017-03-03T04:44:38.170Z,93.94
2017-03-03T04:45:47.507Z,93.32
2017-03-03T04:46:56.496Z,93.37
2017-03-03T04:48:05.576Z,94.03
2017-03-03T04:49:14.663Z,93.75
2017-03-03T04:50:23.637Z,93.84
2017-03-03T04:51:32.930Z,93.84
2017-03-03T04:52:41.918Z,93.65
2017-03-03T04:53:50.896Z,93.27
2017-03-03T04:54:59.877Z,93.56
2017-03-03T04:56:09.275Z,92.9
2017-03-03T04:57:18.556Z,93.37
2017-03-03T04:58:27.568Z,93.56
2017-03-03T04:59:36.554Z,93.56
2017-03-03T05:00:45.557Z,93.37
2017-03-03T05:01:54.542Z,93.27
2017-03-03T05:03:03.797Z,93.94
2017-03-03T05:04:12.770Z,93.18
2017-03-03T05:05:21.756Z,93.46
2017-03-03T05:06:30.734Z,93.84
2017-03-03T05:07:39.710Z,93.46
2017-03-03T05:08:49.005Z,93.65
2017-03-03T05:09:58.006Z,92.33
2017-03-03T05:11:07.022Z,93.18
2017-03-03T05:12:16.021Z,92.9
2017-03-03T05:13:25.019Z,93.46
2017-03-03T05:14:34.301Z,93.27
2017-03-03T05:15:43.273Z,93.46
2017-03-03T05:16:52.359Z,93.56
2017-03-03T05:18:01.348Z,94.03
2017-03-03T05:19:10.334Z,93.37
2017-03-03T05:20:19.620Z,93.08
2017-03-03T05:21:28.588Z,93.27
2017-03-03T05:22:37.648Z,93.46
2017-03-03T05:23:46.635Z,93.27
2017-03-03T05:24:55.610Z,92.8
2017-03-03T05:26:04.898Z,93.27
2017-03-03T05:27:13.885Z,92.9
2017-03-03T05:28:22.883Z,92.99
2017-03-03T05:29:31.882Z,92.99
2017-03-03T05:30:40.874Z,92.99
2017-03-03T05:31:50.112Z,93.08
2017-03-03T05:32:59.192Z,92.8
2017-03-03T05:34:08.584Z,93.46
2017-03-03T05:35:17.567Z,93.46
2017-03-03T05:36:26.558Z,93.27
2017-03-03T05:37:35.836Z,92.8
2017-03-03T05:38:44.835Z,92.99
2017-03-03T05:39:53.933Z,93.56
2017-03-03T05:41:02.945Z,92.99
2017-03-03T05:42:11.916Z,92.71
2017-03-03T05:43:21.207Z,92.99
2017-03-03T05:44:30.192Z,91.94
2017-03-03T05:45:39.283Z,92.33
2017-03-03T05:46:48.263Z,92.42
2017-03-03T05:47:57.256Z,92.23
2017-03-03T05:49:06.908Z,92.52
2017-03-03T05:50:15.901Z,93.27
2017-03-03T05:51:24.875Z,93.08
2017-03-03T05:52:33.860Z,92.42
2017-03-03T05:53:42.868Z,92.9
2017-03-03T05:54:52.151Z,92.52
2017-03-03T05:56:01.159Z,92.42
2017-03-03T05:57:10.141Z,93.08
2017-03-03T05:58:19.113Z,92.04
2017-03-03T05:59:28.093Z,92.23
2017-03-03T06:00:37.381Z,92.9
2017-03-03T06:01:46.370Z,92.9
2017-03-03T06:02:55.355Z,92.04
2017-03-03T06:04:04.832Z,91.09
2017-03-03T06:05:13.819Z,91.09
2017-03-03T06:06:23.097Z,91.09
2017-03-03T06:07:32.077Z,92.04
2017-03-03T06:08:41.081Z,91.47
2017-03-03T06:09:50.155Z,92.42
2017-03-03T06:10:59.312Z,92.71
2017-03-03T06:12:08.549Z,92.61
2017-03-03T06:13:17.953Z,92.71
2017-03-03T06:14:26.942Z,92.42
2017-03-03T06:15:35.916Z,93.08
2017-03-03T06:16:44.905Z,93.08
2017-03-03T06:17:54.135Z,92.52
2017-03-03T06:19:03.205Z,92.23
2017-03-03T06:20:12.194Z,92.23
2017-03-03T06:21:21.262Z,92.42
2017-03-03T06:22:30.245Z,92.8
2017-03-03T06:23:39.590Z,92.23
2017-03-03T06:24:48.567Z,91.19
2017-03-03T06:25:57.561Z,90.52
2017-03-03T06:27:06.543Z,91.56
2017-03-03T06:28:15.536Z,91.38
2017-03-03T06:29:24.992Z,91.19
2017-03-03T06:30:34.057Z,91.09
2017-03-03T06:31:43.148Z,91.75
2017-03-03T06:32:52.211Z,92.14
2017-03-03T06:34:01.621Z,92.33
2017-03-03T06:35:10.864Z,92.23
2017-03-03T06:36:20.575Z,92.14
2017-03-03T06:37:29.554Z,92.14
2017-03-03T06:38:38.542Z,93.18
2017-03-03T06:39:47.534Z,92.52
2017-03-03T06:40:56.900Z,92.04
2017-03-03T06:42:06.314Z,91.09
2017-03-03T06:43:15.301Z,91.38
2017-03-03T06:44:24.276Z,91.47
2017-03-03T06:45:33.261Z,91.85
2017-03-03T06:46:42.549Z,91.47
2017-03-03T06:47:51.539Z,91.56
2017-03-03T06:49:00.522Z,92.23
2017-03-03T06:50:09.508Z,91.85
2017-03-03T06:51:18.661Z,92.14
2017-03-03T06:52:27.935Z,92.75
2017-03-03T06:53:37.057Z,92.37
2017-03-03T06:54:46.820Z,92.85
2017-03-03T06:55:55.813Z,92.94
2017-03-03T06:57:04.846Z,91.89
2017-03-03T06:58:14.145Z,92.18
2017-03-03T06:59:23.122Z,92.18
2017-03-03T07:00:32.611Z,91.89
2017-03-03T07:01:41.604Z,91.61
2017-03-03T07:02:51.019Z,91.14
2017-03-03T07:04:00.334Z,90.28
2017-03-03T07:05:09.380Z,90.28
2017-03-03T07:06:18.355Z,90.38
2017-03-03T07:07:27.329Z,91.33
2017-03-03T07:08:36.987Z,91.14
2017-03-03T07:09:46.283Z,90.19
2017-03-03T07:10:55.299Z,90
2017-03-03T07:12:04.288Z,90.47
2017-03-03T07:13:13.282Z,91.24
2017-03-03T07:14:22.350Z,90.85
2017-03-03T07:15:31.741Z,91.61
2017-03-03T07:16:40.748Z,92.28
2017-03-03T07:17:49.742Z,92.37
2017-03-03T07:18:58.774Z,91.8
2017-03-03T07:20:07.786Z,92.28
2017-03-03T07:21:17.018Z,92.28
2017-03-03T07:22:26.025Z,92.18
2017-03-03T07:23:35.051Z,91.71
2017-03-03T07:24:44.079Z,90.85
2017-03-03T07:25:53.457Z,91.14
2017-03-03T07:27:02.774Z,91.42
2017-03-03T07:28:11.785Z,92.47
2017-03-03T07:29:21.202Z,92.28
2017-03-03T07:30:30.189Z,91.56
2017-03-03T07:31:39.260Z,91.75
2017-03-03T07:32:48.946Z,91.52
2017-03-03T07:33:57.927Z,91.75
2017-03-03T07:35:07.105Z,90.23
2017-03-03T07:36:16.235Z,91.28
2017-03-03T07:37:25.332Z,91.09
2017-03-03T07:38:34.716Z,91.09
2017-03-03T07:39:43.697Z,90.42
2017-03-03T07:40:52.691Z,90.33
2017-03-03T07:42:01.752Z,90.05
2017-03-03T07:43:10.729Z,90.14
2017-03-03T07:44:20.043Z,91.09
2017-03-03T07:45:29.437Z,91.28
2017-03-03T07:46:39.729Z,91.56
2017-03-03T07:47:48.748Z,91.19
2017-03-03T07:48:57.839Z,90.9
2017-03-03T07:50:07.293Z,91.38
2017-03-03T07:51:16.377Z,91.66
2017-03-03T07:52:25.377Z,92.42
2017-03-03T07:53:34.362Z,92.13
2017-03-03T07:54:43.529Z,92.42
2017-03-03T07:55:53.024Z,91.66
2017-03-03T07:57:02.000Z,91.66
2017-03-03T07:58:11.438Z,91.66
2017-03-03T07:59:20.450Z,91.19
2017-03-03T08:00:29.509Z,90.42
2017-03-03T08:01:39.477Z,89.76
2017-03-03T08:02:48.474Z,89.28
2017-03-03T08:03:57.556Z,89.61
2017-03-03T08:05:06.558Z,90.23
2017-03-03T08:06:15.560Z,90.28
2017-03-03T08:07:24.813Z,91.23
2017-03-03T08:08:33.893Z,88.67
2017-03-03T08:09:42.976Z,89.42
2017-03-03T08:10:52.042Z,89.14
2017-03-03T08:12:01.648Z,89.14
2017-03-03T08:13:10.942Z,89.42
2017-03-03T08:14:20.479Z,89.8
2017-03-03T08:15:29.450Z,90
2017-03-03T08:16:38.443Z,89.23
2017-03-03T08:17:47.469Z,89.8
2017-03-03T08:18:56.898Z,90.28
2017-03-03T08:20:05.943Z,89.23
2017-03-03T08:21:15.376Z,88.57
2017-03-03T08:22:24.361Z,89.71
2017-03-03T08:23:33.439Z,88.8
2017-03-03T08:24:42.908Z,87.43
2017-03-03T08:25:51.979Z,87.14
2017-03-03T08:27:01.013Z,86.61
2017-03-03T08:28:10.003Z,88.52
2017-03-03T08:29:19.015Z,89.28
2017-03-03T08:30:28.325Z,88.13
2017-03-03T08:31:37.556Z,87.28
2017-03-03T08:32:46.560Z,87.09
2017-03-03T08:33:55.536Z,87.09
2017-03-03T08:35:04.621Z,88.04
2017-03-03T08:36:13.927Z,88.42
2017-03-03T08:37:22.914Z,89.28
2017-03-03T08:38:31.912Z,88.71
2017-03-03T08:39:41.055Z,88.23
2017-03-03T08:40:50.128Z,88.23
2017-03-03T08:41:59.525Z,87.19
2017-03-03T08:43:08.716Z,86.8
2017-03-03T08:44:17.782Z,85
2017-03-03T08:45:26.778Z,86.9
2017-03-03T08:46:35.801Z,87.95
2017-03-03T08:47:45.180Z,86.71
2017-03-03T08:48:54.166Z,87.76
2017-03-03T08:50:03.214Z,88.23
2017-03-03T08:51:12.239Z,88.52
2017-03-03T08:52:21.243Z,88.23
2017-03-03T08:53:30.563Z,86.99
2017-03-03T08:54:39.559Z,87.47
2017-03-03T08:55:48.988Z,87.8
2017-03-03T08:56:58.405Z,88.18
2017-03-03T08:58:07.394Z,88.75
2017-03-03T08:59:17.684Z,88.09
2017-03-03T09:00:30.011Z,87.32
2017-03-03T09:01:39.014Z,87.8
2017-03-03T09:02:48.018Z,87.23
2017-03-03T09:03:57.113Z,87.23
2017-03-03T09:05:06.518Z,87.42
2017-03-03T09:06:15.914Z,87.23
2017-03-03T09:07:24.917Z,87.99
2017-03-03T09:08:33.909Z,87.32
2017-03-03T09:09:43.021Z,87.99
2017-03-03T09:10:52.392Z,88.37
2017-03-03T09:12:01.803Z,88.32
2017-03-03T09:13:10.807Z,87.56
2017-03-03T09:14:19.812Z,87.08
2017-03-03T09:15:28.890Z,84.66
2017-03-03T09:16:38.284Z,85.66
2017-03-03T09:17:47.265Z,86.99
2017-03-03T09:18:56.433Z,87.37
2017-03-03T09:20:05.495Z,84.61
2017-03-03T09:21:14.588Z,86.7
2017-03-03T09:22:24.244Z,88.04
2017-03-03T09:23:33.342Z,87.56
2017-03-03T09:24:42.356Z,87.56
2017-03-03T09:25:51.360Z,87.94
2017-03-03T09:27:00.364Z,86.51
2017-03-03T09:28:10.608Z,84.23
2017-03-03T09:29:19.685Z,85.37
2017-03-03T09:30:28.671Z,85.66
2017-03-03T09:31:37.743Z,85.18
2017-03-03T09:32:46.840Z,84.7
2017-03-03T09:33:56.127Z,86.36
2017-03-03T09:35:05.815Z,85.99
2017-03-03T09:36:15.614Z,84.84
2017-03-03T09:37:27.368Z,86.27
2017-03-03T09:38:40.558Z,86.75
2017-03-03T09:39:51.224Z,87.23
2017-03-03T09:41:00.830Z,85.13
2017-03-03T09:42:10.296Z,83.41
2017-03-03T09:43:19.454Z,82.56
2017-03-03T09:44:29.143Z,83.32
2017-03-03T09:45:38.498Z,84.08
2017-03-03T09:46:47.709Z,85.13
2017-03-03T09:47:56.831Z,82.84
2017-03-03T09:49:06.676Z,82.21
2017-03-03T09:50:15.762Z,82.41
2017-03-03T09:51:25.108Z,83.36
2017-03-03T09:52:34.082Z,82.5
2017-03-03T09:53:43.085Z,83.36
2017-03-03T09:54:52.141Z,84.88
2017-03-03T09:56:01.216Z,85.93
2017-03-03T09:57:10.593Z,85.84
2017-03-03T09:58:19.592Z,84.88
2017-03-03T09:59:28.607Z,85.17
2017-03-03T10:00:37.676Z,83.45
2017-03-03T10:01:46.830Z,83.36
2017-03-03T10:02:56.164Z,82.41
2017-03-03T10:04:05.369Z,81.68
2017-03-03T10:05:14.489Z,79.46
2017-03-03T10:06:23.473Z,80.98
2017-03-03T10:07:32.461Z,81.55
2017-03-03T10:08:41.768Z,83.36
2017-03-03T10:09:51.363Z,80.6
2017-03-03T10:11:00.416Z,80.26
2017-03-03T10:12:09.397Z,77.2
2017-03-03T10:13:18.386Z,75.87
2017-03-03T10:14:28.066Z,77.4
2017-03-03T10:15:37.202Z,78.83
2017-03-03T10:16:46.272Z,77.74
2017-03-03T10:17:55.264Z,77.2
2017-03-03T10:19:04.273Z,76.16
2017-03-03T10:20:13.555Z,76.25
2017-03-03T10:21:22.551Z,78.54
2017-03-03T10:22:31.758Z,81.3
2017-03-03T10:23:40.755Z,79.4
2017-03-03T10:24:49.753Z,79.59
2017-03-03T10:25:59.041Z,80.07
2017-03-03T10:27:08.135Z,78.35
2017-03-03T10:28:18.112Z,79.4
2017-03-03T10:29:27.089Z,79.21
2017-03-03T10:30:36.106Z,76.35
2017-03-03T10:31:45.486Z,73.77
2017-03-03T10:32:54.484Z,74.73
2017-03-03T10:34:03.615Z,74.35
2017-03-03T10:35:12.618Z,75.68
2017-03-03T10:36:21.750Z,75.78
2017-03-03T10:37:31.181Z,75.2
2017-03-03T10:38:40.275Z,70.92
2017-03-03T10:39:49.413Z,70.25
2017-03-03T10:40:58.458Z,73.21
2017-03-03T10:42:07.606Z,71.2
2017-03-03T10:43:16.946Z,74.82
2017-03-03T10:44:25.945Z,77.01
2017-03-03T10:45:34.980Z,73.58
2017-03-03T10:46:44.021Z,72.16
2017-03-03T10:47:53.116Z,74.92
2017-03-03T10:49:02.400Z,75.87
2017-03-03T10:50:11.582Z,76.06
2017-03-03T10:51:20.578Z,74.92
2017-03-03T10:52:29.569Z,75.3
2017-03-03T10:53:38.562Z,76.64
2017-03-03T10:54:47.966Z,75.96
2017-03-03T10:55:56.968Z,73.77
2017-03-03T10:57:05.964Z,72.72
2017-03-03T10:58:14.982Z,69.01
2017-03-03T10:59:23.966Z,66.05
2017-03-03T11:00:33.283Z,65.96
2017-03-03T11:01:42.296Z,64.53
2017-03-03T11:02:51.284Z,66.44
2017-03-03T11:04:00.300Z,67.58
2017-03-03T11:05:09.273Z,68.53
2017-03-03T11:06:18.571Z,69.45
2017-03-03T11:07:27.649Z,69.77
2017-03-03T11:08:36.667Z,71.11
2017-03-03T11:09:46.369Z,68.53
2017-03-03T11:10:55.370Z,69.26
2017-03-03T11:12:04.612Z,68.24
2017-03-03T11:13:13.621Z,68.44
2017-03-03T11:14:22.699Z,69.17
2017-03-03T11:15:31.694Z,69.01
2017-03-03T11:16:40.679Z,67.86
2017-03-03T11:17:49.930Z,68.91
2017-03-03T11:18:58.927Z,69.1
2017-03-03T11:20:08.422Z,68.24
2017-03-03T11:21:17.425Z,67
2017-03-03T11:22:26.821Z,68.05
2017-03-03T11:23:36.123Z,69.01
2017-03-03T11:24:45.192Z,72.06
2017-03-03T11:25:54.187Z,74.73
2017-03-03T11:27:03.165Z,72.72
2017-03-03T11:28:12.171Z,73.49
2017-03-03T11:29:21.860Z,73.91
2017-03-03T11:30:30.848Z,75.05
2017-03-03T11:31:39.859Z,72.25
2017-03-03T11:32:48.837Z,70.19
2017-03-03T11:33:57.838Z,68.44
2017-03-03T11:35:07.123Z,68.24
2017-03-03T11:36:16.130Z,68.38
2017-03-03T11:37:25.131Z,68.76
2017-03-03T11:38:34.110Z,66.38
2017-03-03T11:39:43.089Z,68.24
2017-03-03T11:40:52.386Z,68.38
2017-03-03T11:42:01.379Z,64.28
2017-03-03T11:43:10.378Z,63.32
2017-03-03T11:44:19.356Z,67.71
2017-03-03T11:45:28.346Z,67.48
2017-03-03T11:46:37.588Z,69.39
2017-03-03T11:47:46.588Z,67.23
2017-03-03T11:48:55.607Z,68.85
2017-03-03T11:50:04.679Z,70.09
2017-03-03T11:51:13.677Z,70.28
2017-03-03T11:52:22.975Z,71.23
2017-03-03T11:53:31.957Z,64.65
2017-03-03T11:54:40.993Z,65.61
2017-03-03T11:55:50.013Z,67.14
2017-03-03T11:56:58.986Z,69.62
2017-03-03T11:58:08.421Z,71.52
2017-03-03T11:59:17.423Z,69.81
2017-03-03T12:00:26.413Z,70.38
2017-03-03T12:01:35.414Z,70.28
2017-03-03T12:02:44.410Z,69.23
2017-03-03T12:03:53.737Z,68.28
2017-03-03T12:05:02.840Z,65.52
2017-03-03T12:06:11.884Z,65.33
2017-03-03T12:07:21.290Z,66.38
2017-03-03T12:08:30.288Z,68.28
2017-03-03T12:09:40.014Z,69.52
2017-03-03T12:10:49.080Z,68.12
2017-03-03T12:11:58.092Z,66.38
2017-03-03T12:13:07.299Z,67.04
2017-03-03T12:14:16.303Z,69.81
2017-03-03T12:15:25.764Z,68.7
2017-03-03T12:16:34.790Z,68.18
2017-03-03T12:17:44.213Z,66.78
2017-03-03T12:18:53.221Z,68.38
2017-03-03T12:20:02.206Z,64.97
2017-03-03T12:21:11.520Z,63.73
2017-03-03T12:22:20.513Z,62.02
2017-03-03T12:23:29.602Z,65.7
2017-03-03T12:24:38.611Z,66.66
2017-03-03T12:25:47.620Z,65.93
2017-03-03T12:26:56.917Z,64.78
2017-03-03T12:28:05.909Z,66.69
2017-03-03T12:29:14.993Z,66.5
2017-03-03T12:30:23.993Z,65.45
2017-03-03T12:31:33.075Z,66.69
2017-03-03T12:32:42.373Z,68.6
2017-03-03T12:33:51.407Z,69.08
2017-03-03T12:35:00.389Z,65.17
2017-03-03T12:36:09.875Z,62.49
2017-03-03T12:37:18.916Z,61.35
2017-03-03T12:38:28.159Z,62.49
2017-03-03T12:39:37.164Z,65.64
2017-03-03T12:40:46.170Z,65.93
2017-03-03T12:41:55.265Z,66.6
2017-03-03T12:43:04.263Z,68.6
2017-03-03T12:44:13.559Z,68.7
2017-03-03T12:45:22.550Z,67.07
2017-03-03T12:46:31.526Z,65.45
2017-03-03T12:47:40.637Z,62.78
2017-03-03T12:48:49.713Z,61.83
2017-03-03T12:49:59.016Z,61.07
2017-03-03T12:51:08.419Z,62.21
2017-03-03T12:52:17.409Z,61.16
2017-03-03T12:53:26.799Z,62.3
2017-03-03T12:54:35.807Z,62.11
2017-03-03T12:55:45.120Z,63.54
2017-03-03T12:56:54.101Z,62.49
2017-03-03T12:58:03.200Z,64.4
2017-03-03T12:59:12.217Z,66.02
2017-03-03T13:00:21.195Z,64.78
2017-03-03T13:01:30.543Z,65.55
2017-03-03T13:02:39.541Z,65.26
2017-03-03T13:03:48.529Z,64.78
2017-03-03T13:04:57.536Z,64.78
2017-03-03T13:06:06.600Z,60.39
2017-03-03T13:07:15.988Z,62.88
2017-03-03T13:08:25.190Z,64.78
2017-03-03T13:09:34.331Z,64.4
2017-03-03T13:10:43.358Z,66.6
2017-03-03T13:11:52.432Z,66.69
2017-03-03T13:13:01.729Z,65.07
2017-03-03T13:14:10.969Z,65.01
2017-03-03T13:15:20.058Z,65.74
2017-03-03T13:16:29.098Z,67.07
2017-03-03T13:17:38.163Z,65.48
2017-03-03T13:18:47.533Z,64.78
2017-03-03T13:19:56.639Z,62.43
2017-03-03T13:21:05.645Z,63.76
2017-03-03T13:22:14.718Z,65.01
2017-03-03T13:23:23.719Z,64.21
2017-03-03T13:24:33.168Z,65.74
2017-03-03T13:25:42.151Z,64.97
2017-03-03T13:26:51.202Z,64.62
2017-03-03T13:28:00.322Z,64.53
2017-03-03T13:29:09.508Z,63
2017-03-03T13:30:18.831Z,63.29
2017-03-03T13:31:27.840Z,65.01
2017-03-03T13:32:36.893Z,65.48
2017-03-03T13:33:45.940Z,59.85
2017-03-03T13:34:54.923Z,56.89
2017-03-03T13:36:04.210Z,55.53
2017-03-03T13:37:13.317Z,57.34
2017-03-03T13:38:22.724Z,57.63
2017-03-03T13:39:31.727Z,59.92
2017-03-03T13:40:41.281Z,59.25
2017-03-03T13:41:50.754Z,60.3
2017-03-03T13:42:59.749Z,62.11
2017-03-03T13:44:08.751Z,59.82
2017-03-03T13:45:17.753Z,55.62
2017-03-03T13:46:27.021Z,58.48
2017-03-03T13:47:36.448Z,61.44
2017-03-03T13:48:45.496Z,58.87
2017-03-03T13:49:54.511Z,58.97
2017-03-03T13:51:03.513Z,61.07
2017-03-03T13:52:12.512Z,59.92
2017-03-03T13:53:21.811Z,60.49
2017-03-03T13:54:31.752Z,58.68
2017-03-03T13:55:40.753Z,54.6
2017-03-03T13:56:50.179Z,55.43
2017-03-03T13:57:59.163Z,56.48
2017-03-03T13:59:08.480Z,58.2
2017-03-03T14:00:17.483Z,58.2
2017-03-03T14:01:26.472Z,55.15
2017-03-03T14:02:35.472Z,57.63
2017-03-03T14:03:44.457Z,58.29
2017-03-03T14:04:53.756Z,58.2
2017-03-03T14:06:02.871Z,56.87
2017-03-03T14:07:11.851Z,56.96
2017-03-03T14:08:20.844Z,54.32
2017-03-03T14:09:29.864Z,53.62
2017-03-03T14:10:39.325Z,53.91
2017-03-03T14:11:48.389Z,54.79
2017-03-03T14:12:57.404Z,54.67
2017-03-03T14:14:06.400Z,52.57
2017-03-03T14:15:15.435Z,51.9
2017-03-03T14:16:24.776Z,53.36
2017-03-03T14:17:33.800Z,52.76
2017-03-03T14:18:42.866Z,51.43
2017-03-03T14:19:51.853Z,53.62
2017-03-03T14:21:00.873Z,54.48
2017-03-03T14:22:10.166Z,55.55
2017-03-03T14:23:19.251Z,56.41
2017-03-03T14:24:28.395Z,56.89
2017-03-03T14:25:37.451Z,56.41
2017-03-03T14:26:46.603Z,54.03
2017-03-03T14:27:56.341Z,54.03
2017-03-03T14:29:05.435Z,52.12
2017-03-03T14:30:14.537Z,51.17
2017-03-03T14:31:24.058Z,53.08
2017-03-03T14:32:33.437Z,53.45
2017-03-03T14:33:42.736Z,50.12
2017-03-03T14:34:51.858Z,50.69
2017-03-03T14:36:00.932Z,50.12
2017-03-03T14:37:09.915Z,51.64
2017-03-03T14:38:18.911Z,52.12
2017-03-03T14:39:28.195Z,51.54
2017-03-03T14:40:37.196Z,51.93
2017-03-03T14:41:46.268Z,50.78
2017-03-03T14:42:55.345Z,47.54
2017-03-03T14:44:04.343Z,47.82
2017-03-03T14:45:13.627Z,48.08
2017-03-03T14:46:22.628Z,50.28
2017-03-03T14:47:31.624Z,52.57
2017-03-03T14:48:40.647Z,53.53
2017-03-03T14:49:49.629Z,52.57
2017-03-03T14:50:58.945Z,52.09
2017-03-03T14:52:08.036Z,50.76
2017-03-03T14:53:17.134Z,49.73
2017-03-03T14:54:26.203Z,49.52